createdAt,value
2023-02-22T00:00:39.241Z,0.00
2023-02-22T00:01:39.303Z,0.00
2023-02-22T00:02:40.302Z,0.00
2023-02-22T00:03:39.284Z,0.00
2023-02-22T00:04:39.008Z,0.00
2023-02-22T00:05:38.995Z,0.00
2023-02-22T00:06:39.225Z,0.00
2023-02-22T00:07:38.976Z,0.00
2023-02-22T00:08:39.226Z,0.00
2023-02-22T00:09:39.194Z,0.00
2023-02-22T00:10:38.944Z,0.00
2023-02-22T00:11:39.175Z,0.00
2023-02-22T00:12:38.915Z,0.00
2023-02-22T00:13:39.168Z,0.00
2023-02-22T00:14:38.915Z,0.00
2023-02-22T00:15:39.127Z,0.00
2023-02-22T00:16:38.921Z,0.00
2023-02-22T00:17:40.157Z,0.00
2023-02-22T00:18:39.088Z,0.00
2023-02-22T00:19:40.286Z,0.00
2023-02-22T00:20:39.068Z,0.00
2023-02-22T00:21:39.578Z,0.00
2023-02-22T00:22:38.824Z,0.00
2023-02-22T00:23:39.048Z,0.00
2023-02-22T00:24:40.077Z,0.00
2023-02-22T00:25:39.021Z,0.00
2023-02-22T00:26:40.039Z,0.00
2023-02-22T00:27:38.215Z,0.00
2023-02-22T00:28:38.739Z,0.00
2023-02-22T00:29:38.764Z,0.00
2023-02-22T00:30:40.020Z,0.00
2023-02-22T00:31:40.036Z,0.00
2023-02-22T00:32:38.733Z,0.00
2023-02-22T00:33:38.705Z,0.00
2023-02-22T00:34:39.993Z,0.00
2023-02-22T00:35:38.908Z,0.00
2023-02-22T00:36:38.909Z,0.00
2023-02-22T00:37:38.653Z,0.00
2023-02-22T00:38:38.869Z,0.00
2023-02-22T00:39:38.880Z,0.00
2023-02-22T00:40:38.626Z,0.00
2023-02-22T00:41:37.929Z,0.00
2023-02-22T00:42:38.853Z,0.00
2023-02-22T00:43:38.591Z,0.00
2023-02-22T00:44:38.867Z,0.00
2023-02-22T00:45:37.913Z,0.00
2023-02-22T00:46:38.551Z,0.00
2023-02-22T00:47:38.532Z,0.00
2023-02-22T00:48:38.528Z,0.00
2023-02-22T00:49:38.812Z,0.00
2023-02-22T00:50:38.508Z,0.00
2023-02-22T00:51:37.832Z,0.00
2023-02-22T00:52:38.484Z,0.00
2023-02-22T00:53:38.467Z,0.00
2023-02-22T00:54:37.829Z,0.00
2023-02-22T00:55:38.443Z,0.00
2023-02-22T00:56:37.778Z,0.00
2023-02-22T00:57:38.684Z,0.00
2023-02-22T00:58:38.668Z,0.00
2023-02-22T00:59:37.744Z,0.00
2023-02-22T01:00:38.403Z,0.00
2023-02-22T01:01:37.774Z,0.00
2023-02-22T01:02:37.739Z,0.00
2023-02-22T01:03:38.363Z,0.00
2023-02-22T01:04:37.705Z,0.00
2023-02-22T01:05:38.359Z,0.00
2023-02-22T01:06:37.669Z,0.00
2023-02-22T01:07:37.661Z,0.00
2023-02-22T01:08:37.653Z,0.00
2023-02-22T01:09:37.626Z,0.00
2023-02-22T01:10:38.304Z,0.00
2023-02-22T01:11:38.281Z,0.00
2023-02-22T01:12:37.602Z,0.00
2023-02-22T01:13:38.257Z,0.00
2023-02-22T01:14:37.585Z,0.00
2023-02-22T01:15:38.235Z,0.00
2023-02-22T01:16:37.621Z,0.00
2023-02-22T01:17:38.477Z,0.00
2023-02-22T01:18:38.196Z,0.00
2023-02-22T01:19:38.207Z,0.00
2023-02-22T01:20:38.175Z,0.00
2023-02-22T01:21:37.491Z,0.00
2023-02-22T01:22:38.152Z,0.00
2023-02-22T01:23:38.150Z,0.00
2023-02-22T01:24:38.149Z,0.00
2023-02-22T01:25:37.439Z,0.00
2023-02-22T01:26:38.119Z,0.00
2023-02-22T01:27:38.098Z,0.00
2023-02-22T01:28:38.072Z,0.00
2023-02-22T01:29:38.121Z,0.00
2023-02-22T01:30:37.573Z,0.00
2023-02-22T01:31:38.185Z,0.00
2023-02-22T01:32:38.039Z,0.00
2023-02-22T01:33:38.028Z,0.00
2023-02-22T01:34:38.020Z,0.00
2023-02-22T01:35:38.066Z,0.00
2023-02-22T01:36:38.255Z,0.00
2023-02-22T01:37:37.298Z,0.00
2023-02-22T01:38:37.279Z,0.00
2023-02-22T01:39:37.311Z,0.00
2023-02-22T01:40:37.952Z,0.00
2023-02-22T01:41:37.976Z,0.00
2023-02-22T01:42:37.253Z,0.00
2023-02-22T01:43:37.243Z,0.00
2023-02-22T01:44:37.262Z,0.00
2023-02-22T01:45:37.226Z,0.00
2023-02-22T01:46:37.210Z,0.00
2023-02-22T01:47:37.442Z,0.00
2023-02-22T01:48:37.207Z,0.00
2023-02-22T01:49:37.206Z,0.00
2023-02-22T01:50:37.154Z,0.00
2023-02-22T01:51:37.919Z,0.00
2023-02-22T01:52:37.154Z,0.00
2023-02-22T01:53:37.807Z,0.00
2023-02-22T01:54:38.069Z,0.00
2023-02-22T01:55:37.788Z,0.00
2023-02-22T01:56:37.796Z,0.00
2023-02-22T01:57:37.758Z,0.00
2023-02-22T01:58:39.018Z,0.00
2023-02-22T01:59:39.012Z,0.00
2023-02-22T02:00:37.750Z,0.00
2023-02-22T02:01:37.716Z,0.00
2023-02-22T02:02:37.706Z,0.00
2023-02-22T02:03:37.717Z,0.00
2023-02-22T02:04:37.003Z,0.00
2023-02-22T02:05:37.698Z,0.00
2023-02-22T02:06:37.012Z,0.00
2023-02-22T02:07:37.648Z,0.00
2023-02-22T02:08:37.945Z,0.00
2023-02-22T02:09:38.910Z,0.00
2023-02-22T02:10:37.647Z,0.00
2023-02-22T02:11:36.952Z,0.00
2023-02-22T02:12:37.591Z,0.00
2023-02-22T02:13:37.600Z,0.00
2023-02-22T02:14:37.573Z,0.00
2023-02-22T02:15:37.597Z,0.00
2023-02-22T02:16:37.578Z,0.00
2023-02-22T02:17:36.870Z,0.00
2023-02-22T02:18:37.533Z,0.00
2023-02-22T02:19:36.833Z,0.00
2023-02-22T02:20:36.874Z,0.00
2023-02-22T02:21:36.807Z,0.00
2023-02-22T02:22:36.808Z,0.00
2023-02-22T02:23:36.805Z,0.00
2023-02-22T02:24:37.624Z,0.00
2023-02-22T02:25:37.618Z,0.00
2023-02-22T02:26:37.447Z,0.00
2023-02-22T02:27:37.593Z,0.00
2023-02-22T02:28:36.735Z,0.00
2023-02-22T02:29:37.594Z,0.00
2023-02-22T02:30:36.877Z,0.00
2023-02-22T02:31:36.862Z,0.00
2023-02-22T02:32:36.782Z,0.00
2023-02-22T02:33:36.687Z,0.00
2023-02-22T02:34:36.696Z,0.00
2023-02-22T02:35:36.711Z,0.00
2023-02-22T02:36:37.352Z,0.00
2023-02-22T02:37:37.328Z,0.00
2023-02-22T02:38:37.362Z,0.00
2023-02-22T02:39:36.628Z,0.00
2023-02-22T02:40:36.649Z,0.00
2023-02-22T02:41:37.568Z,0.00
2023-02-22T02:42:37.283Z,0.00
2023-02-22T02:43:37.259Z,0.00
2023-02-22T02:44:37.260Z,0.00
2023-02-22T02:45:36.610Z,0.00
2023-02-22T02:46:37.254Z,0.00
2023-02-22T02:47:36.561Z,0.00
2023-02-22T02:48:36.531Z,0.00
2023-02-22T02:49:37.202Z,0.00
2023-02-22T02:50:37.213Z,0.00
2023-02-22T02:51:36.497Z,0.00
2023-02-22T02:52:37.172Z,0.00
2023-02-22T02:53:37.176Z,0.00
2023-02-22T02:54:37.153Z,0.00
2023-02-22T02:55:37.182Z,0.00
2023-02-22T02:56:36.427Z,0.00
2023-02-22T02:57:36.436Z,0.00
2023-02-22T02:58:36.415Z,0.00
2023-02-22T02:59:36.457Z,0.00
2023-02-22T03:00:37.096Z,0.00
2023-02-22T03:01:37.174Z,0.00
2023-02-22T03:02:36.394Z,0.00
2023-02-22T03:03:37.054Z,0.00
2023-02-22T03:04:36.373Z,0.00
2023-02-22T03:05:36.368Z,0.00
2023-02-22T03:06:37.044Z,0.00
2023-02-22T03:07:37.040Z,0.00
2023-02-22T03:08:36.305Z,0.00
2023-02-22T03:09:36.325Z,0.00
2023-02-22T03:10:36.982Z,0.00
2023-02-22T03:11:36.998Z,0.00
2023-02-22T03:12:36.274Z,0.00
2023-02-22T03:13:36.294Z,0.00
2023-02-22T03:14:36.286Z,0.00
2023-02-22T03:15:36.242Z,0.00
2023-02-22T03:16:36.265Z,0.00
2023-02-22T03:17:36.904Z,0.00
2023-02-22T03:18:36.227Z,0.00
2023-02-22T03:19:36.879Z,0.00
2023-02-22T03:20:36.182Z,0.00
2023-02-22T03:21:36.217Z,0.00
2023-02-22T03:22:36.177Z,0.00
2023-02-22T03:23:36.845Z,0.00
2023-02-22T03:24:36.830Z,0.00
2023-02-22T03:25:36.821Z,0.00
2023-02-22T03:26:36.182Z,0.00
2023-02-22T03:27:36.799Z,0.00
2023-02-22T03:28:36.090Z,0.00
2023-02-22T03:29:36.787Z,0.00
2023-02-22T03:30:36.789Z,0.00
2023-02-22T03:31:36.782Z,0.00
2023-02-22T03:32:36.745Z,0.00
2023-02-22T03:33:36.053Z,0.00
2023-02-22T03:34:36.731Z,0.00
2023-02-22T03:35:36.051Z,0.00
2023-02-22T03:36:36.736Z,0.00
2023-02-22T03:37:36.694Z,0.00
2023-02-22T03:38:35.985Z,0.00
2023-02-22T03:39:36.099Z,0.00
2023-02-22T03:40:35.985Z,0.00
2023-02-22T03:41:36.676Z,0.00
2023-02-22T03:42:35.945Z,0.00
2023-02-22T03:43:36.642Z,0.00
2023-02-22T03:44:36.620Z,0.00
2023-02-22T03:45:35.926Z,0.00
2023-02-22T03:46:35.975Z,0.00
2023-02-22T03:47:36.840Z,0.00
2023-02-22T03:48:37.819Z,0.00
2023-02-22T03:49:36.583Z,0.00
2023-02-22T03:50:36.811Z,0.00
2023-02-22T03:51:35.878Z,0.00
2023-02-22T03:52:35.894Z,0.00
2023-02-22T03:53:36.521Z,0.00
2023-02-22T03:54:36.518Z,0.00
2023-02-22T03:55:36.498Z,0.00
2023-02-22T03:56:36.539Z,0.00
2023-02-22T03:57:35.788Z,0.00
2023-02-22T03:58:36.503Z,0.00
2023-02-22T03:59:36.460Z,0.00
2023-02-22T04:00:36.470Z,0.00
2023-02-22T04:01:36.453Z,0.00
2023-02-22T04:02:35.756Z,0.00
2023-02-22T04:03:36.433Z,0.00
2023-02-22T04:04:35.790Z,0.00
2023-02-22T04:05:36.392Z,0.00
2023-02-22T04:06:35.719Z,0.00
2023-02-22T04:07:35.711Z,0.00
2023-02-22T04:08:36.361Z,0.00
2023-02-22T04:09:35.707Z,0.00
2023-02-22T04:10:35.689Z,0.00
2023-02-22T04:11:36.336Z,0.00
2023-02-22T04:12:36.349Z,0.00
2023-02-22T04:13:37.569Z,0.00
2023-02-22T04:14:35.816Z,0.00
2023-02-22T04:15:35.810Z,0.00
2023-02-22T04:16:39.674Z,0.00
2023-02-22T04:17:35.632Z,0.00
2023-02-22T04:18:37.515Z,0.00
2023-02-22T04:19:35.652Z,0.00
2023-02-22T04:20:36.231Z,0.00
2023-02-22T04:21:35.584Z,0.00
2023-02-22T04:22:36.233Z,0.00
2023-02-22T04:23:35.600Z,0.00
2023-02-22T04:24:36.192Z,0.00
2023-02-22T04:25:36.193Z,0.00
2023-02-22T04:26:35.494Z,0.00
2023-02-22T04:27:35.514Z,0.00
2023-02-22T04:28:36.143Z,0.00
2023-02-22T04:29:36.134Z,0.00
2023-02-22T04:30:35.489Z,0.00
2023-02-22T04:31:35.473Z,0.00
2023-02-22T04:32:35.476Z,0.00
2023-02-22T04:33:35.454Z,0.00
2023-02-22T04:34:36.084Z,0.00
2023-02-22T04:35:36.076Z,0.00
2023-02-22T04:36:36.061Z,0.00
2023-02-22T04:37:35.401Z,0.00
2023-02-22T04:38:36.054Z,0.00
2023-02-22T04:39:36.098Z,0.00
2023-02-22T04:40:36.286Z,0.00
2023-02-22T04:41:36.006Z,0.00
2023-02-22T04:42:35.318Z,0.00
2023-02-22T04:43:35.331Z,0.00
2023-02-22T04:44:35.974Z,0.00
2023-02-22T04:45:35.970Z,0.00
2023-02-22T04:46:35.975Z,0.00
2023-02-22T04:47:37.210Z,0.00
2023-02-22T04:48:36.208Z,0.00
2023-02-22T04:49:37.419Z,0.00
2023-02-22T04:50:35.246Z,0.00
2023-02-22T04:51:35.236Z,0.00
2023-02-22T04:52:35.442Z,0.00
2023-02-22T04:53:35.942Z,0.00
2023-02-22T04:54:35.869Z,0.00
2023-02-22T04:55:35.937Z,0.00
2023-02-22T04:56:35.849Z,0.00
2023-02-22T04:57:35.840Z,0.00
2023-02-22T04:58:36.119Z,0.00
2023-02-22T04:59:35.149Z,0.00
2023-02-22T05:00:35.129Z,0.00
2023-02-22T05:01:35.823Z,0.00
2023-02-22T05:02:35.852Z,0.00
2023-02-22T05:03:35.796Z,0.00
2023-02-22T05:04:36.077Z,0.00
2023-02-22T05:05:35.073Z,0.00
2023-02-22T05:06:35.074Z,0.00
2023-02-22T05:07:35.732Z,0.00
2023-02-22T05:08:35.756Z,0.00
2023-02-22T05:09:35.054Z,0.00
2023-02-22T05:10:35.700Z,0.00
2023-02-22T05:11:35.714Z,0.00
2023-02-22T05:12:36.329Z,0.00
2023-02-22T05:13:35.711Z,0.00
2023-02-22T05:14:35.655Z,0.00
2023-02-22T05:15:35.650Z,0.00
2023-02-22T05:16:36.888Z,0.00
2023-02-22T05:17:35.630Z,0.00
2023-02-22T05:18:35.635Z,0.00
2023-02-22T05:19:34.931Z,0.00
2023-02-22T05:20:35.603Z,0.00
2023-02-22T05:21:35.574Z,0.00
2023-02-22T05:22:35.563Z,0.00
2023-02-22T05:23:34.901Z,0.00
2023-02-22T05:24:34.875Z,0.00
2023-02-22T05:25:35.537Z,0.00
2023-02-22T05:26:34.871Z,0.00
2023-02-22T05:27:34.836Z,0.00
2023-02-22T05:28:34.850Z,0.00
2023-02-22T05:29:34.823Z,0.00
2023-02-22T05:30:35.524Z,0.00
2023-02-22T05:31:35.628Z,0.00
2023-02-22T05:32:35.455Z,0.00
2023-02-22T05:33:34.787Z,0.00
2023-02-22T05:34:35.678Z,0.00
2023-02-22T05:35:35.426Z,0.00
2023-02-22T05:36:34.757Z,0.00
2023-02-22T05:37:35.421Z,0.00
2023-02-22T05:38:34.768Z,0.00
2023-02-22T05:39:35.538Z,0.00
2023-02-22T05:40:37.542Z,0.00
2023-02-22T05:41:35.357Z,0.00
2023-02-22T05:42:35.597Z,0.00
2023-02-22T05:43:35.369Z,0.00
2023-02-22T05:44:35.330Z,0.00
2023-02-22T05:45:36.589Z,0.00
2023-02-22T05:46:36.097Z,0.00
2023-02-22T05:47:35.322Z,0.00
2023-02-22T05:48:35.326Z,0.00
2023-02-22T05:49:35.283Z,0.00
2023-02-22T05:50:35.512Z,0.00
2023-02-22T05:51:35.500Z,0.00
2023-02-22T05:52:35.490Z,0.00
2023-02-22T05:53:35.505Z,0.00
2023-02-22T05:54:35.464Z,0.00
2023-02-22T05:55:35.211Z,0.00
2023-02-22T05:56:35.445Z,0.00
2023-02-22T05:57:35.431Z,0.00
2023-02-22T05:58:35.435Z,0.00
2023-02-22T05:59:35.438Z,0.00
2023-02-22T06:00:35.390Z,0.00
2023-02-22T06:01:35.471Z,0.00
2023-02-22T06:02:35.380Z,0.00
2023-02-22T06:03:35.142Z,0.00
2023-02-22T06:04:35.111Z,0.00
2023-02-22T06:05:35.459Z,0.00
2023-02-22T06:06:35.371Z,0.00
2023-02-22T06:07:35.310Z,0.00
2023-02-22T06:08:35.087Z,0.00
2023-02-22T06:09:35.053Z,0.00
2023-02-22T06:10:35.280Z,0.00
2023-02-22T06:11:35.274Z,0.00
2023-02-22T06:12:35.261Z,0.00
2023-02-22T06:13:35.277Z,0.00
2023-02-22T06:14:35.003Z,0.00
2023-02-22T06:15:35.251Z,0.00
2023-02-22T06:16:35.307Z,0.00
2023-02-22T06:17:35.221Z,0.00
2023-02-22T06:18:35.247Z,0.00
2023-02-22T06:19:35.208Z,0.00
2023-02-22T06:20:35.188Z,0.00
2023-02-22T06:21:34.921Z,0.00
2023-02-22T06:22:34.222Z,0.00
2023-02-22T06:23:34.902Z,0.00
2023-02-22T06:24:34.918Z,0.00
2023-02-22T06:25:34.873Z,0.00
2023-02-22T06:26:34.875Z,0.00
2023-02-22T06:27:35.132Z,0.00
2023-02-22T06:28:34.843Z,0.00
2023-02-22T06:29:34.857Z,0.00
2023-02-22T06:30:34.870Z,0.00
2023-02-22T06:31:34.823Z,0.00
2023-02-22T06:32:34.813Z,0.00
2023-02-22T06:33:34.848Z,0.00
2023-02-22T06:34:35.073Z,0.00
2023-02-22T06:35:34.091Z,0.00
2023-02-22T06:36:34.763Z,0.00
2023-02-22T06:37:34.744Z,0.00
2023-02-22T06:38:34.071Z,0.00
2023-02-22T06:39:35.021Z,0.00
2023-02-22T06:40:34.969Z,5.62
2023-02-22T06:41:34.066Z,5.62
2023-02-22T06:42:34.694Z,5.62
2023-02-22T06:43:34.683Z,5.62
2023-02-22T06:44:34.685Z,5.62
2023-02-22T06:45:34.054Z,5.62
2023-02-22T06:46:34.645Z,5.62
2023-02-22T06:47:34.638Z,5.62
2023-02-22T06:48:34.629Z,5.62
2023-02-22T06:49:34.641Z,5.62
2023-02-22T06:50:35.835Z,5.62
2023-02-22T06:51:33.914Z,5.62
2023-02-22T06:52:33.935Z,5.62
2023-02-22T06:53:33.896Z,5.62
2023-02-22T06:54:33.906Z,11.25
2023-02-22T06:55:33.881Z,11.25
2023-02-22T06:56:33.885Z,11.25
2023-02-22T06:57:33.876Z,11.25
2023-02-22T06:58:34.515Z,11.25
2023-02-22T06:59:34.525Z,11.25
2023-02-22T07:00:34.513Z,11.25
2023-02-22T07:01:33.811Z,11.25
2023-02-22T07:02:34.474Z,11.25
2023-02-22T07:03:33.810Z,11.25
2023-02-22T07:04:36.148Z,16.88
2023-02-22T07:05:34.466Z,16.88
2023-02-22T07:06:33.741Z,16.88
2023-02-22T07:07:33.743Z,16.88
2023-02-22T07:08:33.746Z,16.88
2023-02-22T07:09:34.424Z,16.88
2023-02-22T07:10:34.392Z,22.50
2023-02-22T07:11:34.380Z,22.50
2023-02-22T07:12:34.363Z,22.50
2023-02-22T07:13:34.354Z,28.12
2023-02-22T07:14:34.390Z,28.12
2023-02-22T07:15:33.661Z,28.12
2023-02-22T07:16:34.359Z,33.75
2023-02-22T07:17:34.318Z,33.75
2023-02-22T07:18:33.617Z,33.75
2023-02-22T07:19:34.314Z,33.75
2023-02-22T07:20:33.606Z,33.75
2023-02-22T07:21:34.270Z,33.75
2023-02-22T07:22:34.256Z,33.75
2023-02-22T07:23:34.265Z,33.75
2023-02-22T07:24:33.588Z,33.75
2023-02-22T07:25:33.557Z,33.75
2023-02-22T07:26:34.261Z,33.75
2023-02-22T07:27:33.520Z,33.75
2023-02-22T07:28:34.206Z,33.75
2023-02-22T07:29:33.548Z,33.75
2023-02-22T07:30:34.395Z,33.75
2023-02-22T07:31:34.160Z,33.75
2023-02-22T07:32:34.185Z,39.38
2023-02-22T07:33:34.140Z,39.38
2023-02-22T07:34:33.488Z,39.38
2023-02-22T07:35:34.120Z,39.38
2023-02-22T07:36:33.417Z,39.38
2023-02-22T07:37:33.423Z,39.38
2023-02-22T07:38:34.098Z,45.00
2023-02-22T07:39:34.085Z,45.00
2023-02-22T07:40:34.093Z,50.62
2023-02-22T07:41:34.054Z,56.25
2023-02-22T07:42:33.382Z,67.50
2023-02-22T07:43:33.382Z,67.50
2023-02-22T07:44:34.023Z,67.50
2023-02-22T07:45:34.071Z,67.50
2023-02-22T07:46:33.338Z,73.12
2023-02-22T07:47:34.035Z,73.12
2023-02-22T07:48:33.322Z,67.50
2023-02-22T07:49:33.963Z,67.50
2023-02-22T07:50:33.973Z,67.50
2023-02-22T07:51:33.941Z,67.50
2023-02-22T07:52:33.939Z,67.50
2023-02-22T07:53:33.933Z,73.12
2023-02-22T07:54:33.245Z,73.12
2023-02-22T07:55:33.932Z,73.12
2023-02-22T07:56:33.894Z,73.12
2023-02-22T07:57:33.209Z,67.50
2023-02-22T07:58:33.877Z,67.50
2023-02-22T07:59:33.860Z,67.50
2023-02-22T08:00:33.184Z,67.50
2023-02-22T08:01:33.176Z,67.50
2023-02-22T08:02:33.187Z,67.50
2023-02-22T08:03:33.157Z,67.50
2023-02-22T08:04:33.125Z,67.50
2023-02-22T08:05:33.815Z,61.88
2023-02-22T08:06:33.785Z,61.88
2023-02-22T08:07:33.802Z,61.88
2023-02-22T08:08:33.756Z,67.50
2023-02-22T08:09:33.749Z,67.50
2023-02-22T08:10:33.756Z,67.50
2023-02-22T08:11:33.062Z,67.50
2023-02-22T08:12:33.073Z,67.50
2023-02-22T08:13:33.023Z,67.50
2023-02-22T08:14:33.707Z,73.12
2023-02-22T08:15:33.700Z,73.12
2023-02-22T08:16:33.056Z,78.75
2023-02-22T08:17:32.979Z,78.75
2023-02-22T08:18:33.653Z,78.75
2023-02-22T08:19:33.647Z,78.75
2023-02-22T08:20:32.968Z,78.75
2023-02-22T08:21:33.618Z,84.38
2023-02-22T08:22:33.610Z,90.00
2023-02-22T08:23:32.925Z,84.38
2023-02-22T08:24:32.922Z,84.38
2023-02-22T08:25:33.606Z,78.75
2023-02-22T08:26:33.561Z,78.75
2023-02-22T08:27:33.551Z,78.75
2023-02-22T08:28:32.863Z,84.38
2023-02-22T08:29:33.531Z,90.00
2023-02-22T08:30:33.553Z,90.00
2023-02-22T08:31:33.567Z,90.00
2023-02-22T08:32:33.708Z,90.00
2023-02-22T08:33:33.526Z,90.00
2023-02-22T08:34:32.796Z,90.00
2023-02-22T08:35:32.803Z,95.62
2023-02-22T08:36:33.452Z,95.62
2023-02-22T08:37:32.770Z,95.62
2023-02-22T08:38:32.751Z,95.62
2023-02-22T08:39:32.742Z,95.62
2023-02-22T08:40:33.445Z,95.62
2023-02-22T08:41:32.710Z,95.62
2023-02-22T08:42:33.389Z,101.25
2023-02-22T08:43:33.396Z,101.25
2023-02-22T08:44:33.370Z,106.88
2023-02-22T08:45:32.721Z,106.88
2023-02-22T08:46:32.670Z,112.50
2023-02-22T08:47:32.679Z,118.12
2023-02-22T08:48:33.338Z,123.75
2023-02-22T08:49:33.311Z,123.75
2023-02-22T08:50:32.661Z,129.38
2023-02-22T08:51:32.591Z,135.00
2023-02-22T08:52:32.582Z,146.25
2023-02-22T08:53:33.272Z,168.75
2023-02-22T08:54:33.257Z,163.12
2023-02-22T08:55:33.254Z,146.25
2023-02-22T08:56:33.254Z,146.25
2023-02-22T08:57:33.234Z,140.62
2023-02-22T08:58:33.211Z,129.38
2023-02-22T08:59:33.214Z,123.75
2023-02-22T09:00:33.470Z,118.12
2023-02-22T09:01:33.835Z,112.50
2023-02-22T09:02:33.168Z,112.50
2023-02-22T09:03:33.222Z,112.50
2023-02-22T09:04:33.156Z,118.12
2023-02-22T09:05:33.140Z,123.75
2023-02-22T09:06:33.154Z,129.38
2023-02-22T09:07:33.122Z,135.00
2023-02-22T09:08:33.101Z,135.00
2023-02-22T09:09:32.408Z,140.62
2023-02-22T09:10:33.083Z,135.00
2023-02-22T09:11:32.417Z,140.62
2023-02-22T09:12:33.063Z,140.62
2023-02-22T09:13:33.052Z,146.25
2023-02-22T09:14:33.042Z,146.25
2023-02-22T09:15:33.028Z,146.25
2023-02-22T09:16:32.452Z,146.25
2023-02-22T09:17:33.002Z,151.88
2023-02-22T09:18:43.445Z,157.50
2023-02-22T09:19:33.298Z,151.88
2023-02-22T09:20:32.298Z,157.50
2023-02-22T09:21:32.317Z,163.12
2023-02-22T09:22:32.277Z,157.50
2023-02-22T09:23:32.941Z,168.75
2023-02-22T09:24:32.945Z,168.75
2023-02-22T09:25:32.927Z,163.12
2023-02-22T09:26:32.936Z,168.75
2023-02-22T09:27:32.228Z,168.75
2023-02-22T09:28:32.235Z,168.75
2023-02-22T09:29:32.327Z,163.12
2023-02-22T09:30:32.961Z,157.50
2023-02-22T09:31:32.976Z,168.75
2023-02-22T09:32:32.335Z,174.38
2023-02-22T09:33:32.172Z,180.00
2023-02-22T09:34:32.139Z,174.38
2023-02-22T09:35:32.810Z,174.38
2023-02-22T09:36:32.096Z,180.00
2023-02-22T09:37:32.808Z,185.62
2023-02-22T09:38:32.089Z,180.00
2023-02-22T09:39:32.802Z,180.00
2023-02-22T09:40:32.069Z,191.25
2023-02-22T09:41:34.017Z,208.12
2023-02-22T09:42:32.756Z,225.00
2023-02-22T09:43:32.047Z,225.00
2023-02-22T09:44:32.047Z,219.38
2023-02-22T09:45:32.130Z,202.50
2023-02-22T09:46:32.026Z,191.25
2023-02-22T09:47:32.046Z,180.00
2023-02-22T09:48:32.001Z,180.00
2023-02-22T09:49:31.978Z,180.00
2023-02-22T09:50:31.965Z,185.62
2023-02-22T09:51:32.639Z,191.25
2023-02-22T09:52:31.969Z,191.25
2023-02-22T09:53:32.623Z,191.25
2023-02-22T09:54:31.938Z,196.88
2023-02-22T09:55:31.910Z,196.88
2023-02-22T09:56:31.922Z,196.88
2023-02-22T09:57:31.930Z,202.50
2023-02-22T09:58:32.803Z,219.38
2023-02-22T09:59:31.875Z,230.62
2023-02-22T10:00:31.920Z,247.50
2023-02-22T10:01:31.852Z,253.12
2023-02-22T10:02:31.861Z,253.12
2023-02-22T10:03:31.852Z,264.38
2023-02-22T10:04:32.505Z,264.38
2023-02-22T10:05:31.825Z,270.00
2023-02-22T10:06:32.483Z,270.00
2023-02-22T10:07:31.814Z,270.00
2023-02-22T10:08:31.790Z,270.00
2023-02-22T10:09:32.445Z,270.00
2023-02-22T10:10:31.777Z,270.00
2023-02-22T10:11:32.427Z,270.00
2023-02-22T10:12:32.427Z,270.00
2023-02-22T10:13:31.716Z,270.00
2023-02-22T10:14:33.645Z,270.00
2023-02-22T10:15:31.706Z,270.00
2023-02-22T10:16:32.420Z,270.00
2023-02-22T10:17:32.376Z,264.38
2023-02-22T10:18:31.658Z,258.75
2023-02-22T10:19:31.648Z,258.75
2023-02-22T10:20:31.647Z,258.75
2023-02-22T10:21:32.311Z,258.75
2023-02-22T10:22:31.649Z,258.75
2023-02-22T10:23:31.655Z,258.75
2023-02-22T10:24:32.279Z,264.38
2023-02-22T10:25:32.268Z,264.38
2023-02-22T10:26:32.272Z,264.38
2023-02-22T10:27:31.579Z,270.00
2023-02-22T10:28:32.234Z,270.00
2023-02-22T10:29:31.540Z,264.38
2023-02-22T10:30:34.147Z,264.38
2023-02-22T10:31:31.583Z,264.38
2023-02-22T10:32:31.594Z,270.00
2023-02-22T10:33:32.210Z,270.00
2023-02-22T10:34:32.188Z,270.00
2023-02-22T10:35:31.475Z,275.62
2023-02-22T10:36:32.147Z,270.00
2023-02-22T10:37:31.519Z,270.00
2023-02-22T10:38:32.126Z,275.62
2023-02-22T10:39:31.491Z,281.25
2023-02-22T10:40:31.416Z,286.88
2023-02-22T10:41:32.096Z,286.88
2023-02-22T10:42:31.427Z,286.88
2023-02-22T10:43:32.074Z,292.50
2023-02-22T10:44:31.380Z,298.12
2023-02-22T10:45:32.166Z,298.12
2023-02-22T10:46:32.042Z,298.12
2023-02-22T10:47:31.357Z,303.75
2023-02-22T10:48:31.368Z,298.12
2023-02-22T10:49:31.330Z,309.38
2023-02-22T10:50:31.349Z,303.75
2023-02-22T10:51:32.009Z,303.75
2023-02-22T10:52:31.981Z,303.75
2023-02-22T10:53:31.301Z,298.12
2023-02-22T10:54:31.282Z,298.12
2023-02-22T10:55:31.262Z,298.12
2023-02-22T10:56:31.942Z,298.12
2023-02-22T10:57:31.924Z,298.12
2023-02-22T10:58:31.934Z,298.12
2023-02-22T10:59:31.222Z,292.50
2023-02-22T11:00:31.919Z,292.50
2023-02-22T11:01:31.971Z,292.50
2023-02-22T11:02:31.871Z,286.88
2023-02-22T11:03:31.226Z,286.88
2023-02-22T11:04:31.173Z,286.88
2023-02-22T11:05:31.155Z,281.25
2023-02-22T11:06:31.147Z,281.25
2023-02-22T11:07:31.127Z,275.62
2023-02-22T11:08:31.847Z,275.62
2023-02-22T11:09:31.800Z,275.62
2023-02-22T11:10:31.109Z,275.62
2023-02-22T11:11:31.159Z,275.62
2023-02-22T11:12:31.105Z,275.62
2023-02-22T11:13:31.136Z,270.00
2023-02-22T11:14:31.744Z,270.00
2023-02-22T11:15:31.741Z,270.00
2023-02-22T11:16:31.743Z,270.00
2023-02-22T11:17:31.709Z,270.00
2023-02-22T11:18:31.728Z,270.00
2023-02-22T11:19:31.016Z,270.00
2023-02-22T11:20:31.021Z,270.00
2023-02-22T11:21:30.990Z,270.00
2023-02-22T11:22:30.986Z,270.00
2023-02-22T11:23:31.690Z,270.00
2023-02-22T11:24:43.561Z,270.00
2023-02-22T11:25:31.934Z,270.00
2023-02-22T11:26:31.607Z,270.00
2023-02-22T11:27:30.933Z,275.62
2023-02-22T11:28:31.246Z,275.62
2023-02-22T11:29:30.925Z,275.62
2023-02-22T11:30:31.003Z,275.62
2023-02-22T11:31:31.662Z,281.25
2023-02-22T11:32:31.539Z,281.25
2023-02-22T11:33:30.878Z,281.25
2023-02-22T11:34:31.549Z,281.25
2023-02-22T11:35:30.820Z,281.25
2023-02-22T11:36:31.497Z,281.25
2023-02-22T11:37:31.486Z,281.25
2023-02-22T11:38:31.496Z,281.25
2023-02-22T11:39:30.819Z,281.25
2023-02-22T11:40:30.767Z,281.25
2023-02-22T11:41:30.767Z,281.25
2023-02-22T11:42:31.427Z,281.25
2023-02-22T11:43:30.773Z,281.25
2023-02-22T11:44:30.719Z,281.25
2023-02-22T11:45:30.707Z,281.25
2023-02-22T11:46:30.775Z,286.88
2023-02-22T11:47:31.379Z,286.88
2023-02-22T11:48:31.363Z,281.25
2023-02-22T11:49:31.372Z,281.25
2023-02-22T11:50:30.668Z,281.25
2023-02-22T11:51:30.638Z,286.88
2023-02-22T11:52:31.327Z,286.88
2023-02-22T11:53:31.308Z,286.88
2023-02-22T11:54:31.337Z,286.88
2023-02-22T11:55:42.402Z,286.88
2023-02-22T11:56:37.765Z,286.88
2023-02-22T11:57:33.010Z,281.25
2023-02-22T11:58:31.266Z,281.25
2023-02-22T11:59:31.261Z,281.25
2023-02-22T12:00:31.231Z,281.25
2023-02-22T12:01:31.218Z,281.25
2023-02-22T12:02:30.556Z,275.62
2023-02-22T12:03:30.640Z,275.62
2023-02-22T12:04:30.603Z,270.00
2023-02-22T12:05:31.174Z,270.00
2023-02-22T12:06:31.169Z,264.38
2023-02-22T12:07:30.478Z,264.38
2023-02-22T12:08:31.151Z,264.38
2023-02-22T12:09:30.462Z,258.75
2023-02-22T12:10:31.128Z,258.75
2023-02-22T12:11:31.118Z,258.75
2023-02-22T12:12:31.385Z,258.75
2023-02-22T12:13:30.402Z,258.75
2023-02-22T12:14:30.415Z,258.75
2023-02-22T12:15:31.078Z,258.75
2023-02-22T12:16:31.070Z,258.75
2023-02-22T12:17:31.049Z,264.38
2023-02-22T12:18:30.374Z,264.38
2023-02-22T12:19:30.358Z,264.38
2023-02-22T12:20:31.008Z,264.38
2023-02-22T12:21:31.003Z,258.75
2023-02-22T12:22:30.988Z,258.75
2023-02-22T12:23:30.975Z,253.12
2023-02-22T12:24:30.992Z,253.12
2023-02-22T12:25:30.964Z,247.50
2023-02-22T12:26:30.955Z,247.50
2023-02-22T12:27:30.274Z,247.50
2023-02-22T12:28:30.986Z,247.50
2023-02-22T12:29:30.943Z,247.50
2023-02-22T12:30:30.983Z,247.50
2023-02-22T12:31:30.285Z,241.88
2023-02-22T12:32:30.297Z,241.88
2023-02-22T12:33:30.933Z,236.25
2023-02-22T12:34:30.908Z,236.25
2023-02-22T12:35:30.851Z,230.62
2023-02-22T12:36:30.163Z,236.25
2023-02-22T12:37:30.833Z,225.00
2023-02-22T12:38:30.180Z,225.00
2023-02-22T12:39:35.979Z,230.62
2023-02-22T12:40:31.105Z,219.38
2023-02-22T12:41:30.787Z,219.38
2023-02-22T12:42:30.092Z,213.75
2023-02-22T12:43:30.767Z,213.75
2023-02-22T12:44:30.776Z,213.75
2023-02-22T12:45:30.774Z,213.75
2023-02-22T12:46:30.758Z,213.75
2023-02-22T12:47:30.039Z,213.75
2023-02-22T12:48:30.037Z,213.75
2023-02-22T12:49:30.050Z,213.75
2023-02-22T12:50:30.692Z,213.75
2023-02-22T12:51:30.014Z,219.38
2023-02-22T12:52:29.995Z,219.38
2023-02-22T12:53:29.982Z,219.38
2023-02-22T12:54:30.652Z,219.38
2023-02-22T12:55:30.662Z,219.38
2023-02-22T12:56:30.632Z,219.38
2023-02-22T12:57:29.951Z,219.38